sensor_id;sensor_type;location;lat;lon;timestamp;temperature;humidity
6164;DHT22;3114;48.362;10.994;2023-03-24T00:00:00;15.50;99.90
6164;DHT22;3114;48.362;10.994;2023-03-24T00:02:29;15.30;99.90
6164;DHT22;3114;48.362;10.994;2023-03-24T00:05:02;15.40;99.90
6164;DHT22;3114;48.362;10.994;2023-03-24T00:07:30;15.40;99.90
6164;DHT22;3114;48.362;10.994;2023-03-24T00:10:03;15.50;99.90
6164;DHT22;3114;48.362;10.994;2023-03-24T00:12:31;15.50;99.90
6164;DHT22;3114;48.362;10.994;2023-03-24T00:15:04;15.40;99.90
6164;DHT22;3114;48.362;10.994;2023-03-24T00:17:31;15.40;99.90
6164;DHT22;3114;48.362;10.994;2023-03-24T00:20:00;15.40;99.90
6164;DHT22;3114;48.362;10.994;2023-03-24T00:22:32;15.40;99.90
6164;DHT22;3114;48.362;10.994;2023-03-24T00:24:59;15.30;99.90
6164;DHT22;3114;48.362;10.994;2023-03-24T00:27:30;15.30;99.90
6164;DHT22;3114;48.362;10.994;2023-03-24T00:30:02;15.20;99.90
6164;DHT22;3114;48.362;10.994;2023-03-24T00:32:31;15.10;99.90
6164;DHT22;3114;48.362;10.994;2023-03-24T00:34:58;15.10;99.90
6164;DHT22;3114;48.362;10.994;2023-03-24T00:37:26;15.00;99.90
6164;DHT22;3114;48.362;10.994;2023-03-24T00:39:53;15.00;99.90
6164;DHT22;3114;48.362;10.994;2023-03-24T00:42:20;15.00;99.90
6164;DHT22;3114;48.362;10.994;2023-03-24T00:44:53;15.00;99.90
6164;DHT22;3114;48.362;10.994;2023-03-24T00:47:20;15.00;99.90
6164;DHT22;3114;48.362;10.994;2023-03-24T00:49:51;15.00;99.90
6164;DHT22;3114;48.362;10.994;2023-03-24T00:52:20;15.10;99.90
6164;DHT22;3114;48.362;10.994;2023-03-24T00:54:50;15.00;99.90
6164;DHT22;3114;48.362;10.994;2023-03-24T00:57:19;15.10;99.90
6164;DHT22;3114;48.362;10.994;2023-03-24T00:59:47;15.10;99.90
6164;DHT22;3114;48.362;10.994;2023-03-24T01:02:16;15.10;99.90
6164;DHT22;3114;48.362;10.994;2023-03-24T01:04:44;15.10;99.90
6164;DHT22;3114;48.362;10.994;2023-03-24T01:07:12;15.10;99.90
6164;DHT22;3114;48.362;10.994;2023-03-24T01:09:43;15.20;99.90
6164;DHT22;3114;48.362;10.994;2023-03-24T01:12:16;15.30;99.90
6164;DHT22;3114;48.362;10.994;2023-03-24T01:14:44;15.20;99.90
6164;DHT22;3114;48.362;10.994;2023-03-24T01:17:12;15.20;99.90
6164;DHT22;3114;48.362;10.994;2023-03-24T01:19:40;15.30;99.90
6164;DHT22;3114;48.362;10.994;2023-03-24T01:22:10;15.40;99.90
6164;DHT22;3114;48.362;10.994;2023-03-24T01:24:38;15.40;99.90
6164;DHT22;3114;48.362;10.994;2023-03-24T01:27:05;15.50;99.90
6164;DHT22;3114;48.362;10.994;2023-03-24T01:29:32;15.20;99.90
6164;DHT22;3114;48.362;10.994;2023-03-24T01:31:59;14.80;99.90
6164;DHT22;3114;48.362;10.994;2023-03-24T01:34:26;14.60;99.90
6164;DHT22;3114;48.362;10.994;2023-03-24T01:36:54;14.50;99.90
6164;DHT22;3114;48.362;10.994;2023-03-24T01:39:21;14.40;99.90
6164;DHT22;3114;48.362;10.994;2023-03-24T01:41:48;14.10;99.90
6164;DHT22;3114;48.362;10.994;2023-03-24T01:44:28;14.10;99.90
6164;DHT22;3114;48.362;10.994;2023-03-24T01:46:56;14.30;99.90
6164;DHT22;3114;48.362;10.994;2023-03-24T01:49:28;14.40;99.90
6164;DHT22;3114;48.362;10.994;2023-03-24T01:52:02;14.40;99.90
6164;DHT22;3114;48.362;10.994;2023-03-24T01:54:32;14.50;99.90
6164;DHT22;3114;48.362;10.994;2023-03-24T01:57:03;14.60;99.90
6164;DHT22;3114;48.362;10.994;2023-03-24T01:59:34;14.60;99.90
6164;DHT22;3114;48.362;10.994;2023-03-24T02:02:03;14.60;99.90
6164;DHT22;3114;48.362;10.994;2023-03-24T02:04:33;14.40;99.90
6164;DHT22;3114;48.362;10.994;2023-03-24T02:07:10;14.40;99.90
6164;DHT22;3114;48.362;10.994;2023-03-24T02:09:38;14.40;99.90
6164;DHT22;3114;48.362;10.994;2023-03-24T02:12:05;14.60;99.90
6164;DHT22;3114;48.362;10.994;2023-03-24T02:14:33;14.70;99.90
6164;DHT22;3114;48.362;10.994;2023-03-24T02:17:25;14.70;99.90
6164;DHT22;3114;48.362;10.994;2023-03-24T02:20:29;14.70;99.90
6164;DHT22;3114;48.362;10.994;2023-03-24T02:23:19;14.80;99.90
6164;DHT22;3114;48.362;10.994;2023-03-24T02:28:58;14.50;99.90
6164;DHT22;3114;48.362;10.994;2023-03-24T02:31:56;14.70;99.90
6164;DHT22;3114;48.362;10.994;2023-03-24T02:35:03;14.80;99.90
6164;DHT22;3114;48.362;10.994;2023-03-24T02:38:10;14.80;99.90
6164;DHT22;3114;48.362;10.994;2023-03-24T02:40:43;14.70;99.90
6164;DHT22;3114;48.362;10.994;2023-03-24T02:43:19;14.40;99.90
6164;DHT22;3114;48.362;10.994;2023-03-24T02:45:59;14.60;99.90
6164;DHT22;3114;48.362;10.994;2023-03-24T02:48:33;14.50;99.90
6164;DHT22;3114;48.362;10.994;2023-03-24T02:51:06;14.60;99.90
6164;DHT22;3114;48.362;10.994;2023-03-24T02:53:39;14.60;99.90
6164;DHT22;3114;48.362;10.994;2023-03-24T02:56:15;14.60;99.90
6164;DHT22;3114;48.362;10.994;2023-03-24T02:58:48;14.70;99.90
6164;DHT22;3114;48.362;10.994;2023-03-24T03:01:20;14.80;99.90
6164;DHT22;3114;48.362;10.994;2023-03-24T03:03:59;14.70;99.90
6164;DHT22;3114;48.362;10.994;2023-03-24T03:06:29;14.70;99.90
6164;DHT22;3114;48.362;10.994;2023-03-24T03:09:01;14.70;99.90
6164;DHT22;3114;48.362;10.994;2023-03-24T03:11:31;14.60;99.90
6164;DHT22;3114;48.362;10.994;2023-03-24T03:14:00;14.60;99.90
6164;DHT22;3114;48.362;10.994;2023-03-24T03:16:35;14.60;99.90
6164;DHT22;3114;48.362;10.994;2023-03-24T03:19:08;14.70;99.90
6164;DHT22;3114;48.362;10.994;2023-03-24T03:21:39;14.70;99.90
6164;DHT22;3114;48.362;10.994;2023-03-24T03:24:10;14.80;99.90
6164;DHT22;3114;48.362;10.994;2023-03-24T03:26:42;14.80;99.90
6164;DHT22;3114;48.362;10.994;2023-03-24T03:29:13;14.80;99.90
6164;DHT22;3114;48.362;10.994;2023-03-24T03:31:45;14.70;99.90
6164;DHT22;3114;48.362;10.994;2023-03-24T03:34:19;14.70;99.90
6164;DHT22;3114;48.362;10.994;2023-03-24T03:36:53;14.70;99.90
6164;DHT22;3114;48.362;10.994;2023-03-24T03:39:24;14.70;99.90
6164;DHT22;3114;48.362;10.994;2023-03-24T03:41:55;14.70;99.90
6164;DHT22;3114;48.362;10.994;2023-03-24T03:44:23;14.60;99.90
6164;DHT22;3114;48.362;10.994;2023-03-24T03:46:53;14.60;99.90
6164;DHT22;3114;48.362;10.994;2023-03-24T03:49:21;14.60;99.90
6164;DHT22;3114;48.362;10.994;2023-03-24T03:51:52;14.60;99.90
6164;DHT22;3114;48.362;10.994;2023-03-24T03:54:22;14.40;99.90
6164;DHT22;3114;48.362;10.994;2023-03-24T03:56:51;14.20;99.90
6164;DHT22;3114;48.362;10.994;2023-03-24T03:59:28;14.20;99.90
6164;DHT22;3114;48.362;10.994;2023-03-24T04:02:00;14.20;99.90
6164;DHT22;3114;48.362;10.994;2023-03-24T04:04:50;14.30;99.90
6164;DHT22;3114;48.362;10.994;2023-03-24T04:07:23;14.30;99.90
6164;DHT22;3114;48.362;10.994;2023-03-24T04:10:01;14.40;99.90
6164;DHT22;3114;48.362;10.994;2023-03-24T04:12:48;14.40;99.90
6164;DHT22;3114;48.362;10.994;2023-03-24T04:15:28;14.40;99.90
6164;DHT22;3114;48.362;10.994;2023-03-24T04:21:05;14.30;99.90
6164;DHT22;3114;48.362;10.994;2023-03-24T04:23:42;14.40;99.90
6164;DHT22;3114;48.362;10.994;2023-03-24T04:26:17;14.40;99.90
6164;DHT22;3114;48.362;10.994;2023-03-24T04:28:59;14.50;99.90
6164;DHT22;3114;48.362;10.994;2023-03-24T04:31:33;14.50;99.90
6164;DHT22;3114;48.362;10.994;2023-03-24T04:34:06;14.40;99.90
6164;DHT22;3114;48.362;10.994;2023-03-24T04:36:39;14.50;99.90
6164;DHT22;3114;48.362;10.994;2023-03-24T04:39:11;14.60;99.90
6164;DHT22;3114;48.362;10.994;2023-03-24T04:41:39;14.60;99.90
6164;DHT22;3114;48.362;10.994;2023-03-24T04:44:08;14.60;99.90
6164;DHT22;3114;48.362;10.994;2023-03-24T04:46:37;14.60;99.90
6164;DHT22;3114;48.362;10.994;2023-03-24T04:49:04;14.70;99.90
6164;DHT22;3114;48.362;10.994;2023-03-24T04:51:32;14.40;99.90
6164;DHT22;3114;48.362;10.994;2023-03-24T04:53:59;14.20;99.90
6164;DHT22;3114;48.362;10.994;2023-03-24T04:56:29;14.20;99.90
6164;DHT22;3114;48.362;10.994;2023-03-24T04:59:00;14.30;99.90
6164;DHT22;3114;48.362;10.994;2023-03-24T05:01:27;14.10;99.90
6164;DHT22;3114;48.362;10.994;2023-03-24T05:03:56;14.00;99.90
6164;DHT22;3114;48.362;10.994;2023-03-24T05:06:24;13.90;99.90
6164;DHT22;3114;48.362;10.994;2023-03-24T05:08:54;13.90;99.90
6164;DHT22;3114;48.362;10.994;2023-03-24T05:11:23;14.00;99.90
6164;DHT22;3114;48.362;10.994;2023-03-24T05:13:51;15.00;99.90
6164;DHT22;3114;48.362;10.994;2023-03-24T05:16:18;13.90;99.90
6164;DHT22;3114;48.362;10.994;2023-03-24T05:21:29;13.70;99.90
6164;DHT22;3114;48.362;10.994;2023-03-24T05:23:56;13.70;99.90
6164;DHT22;3114;48.362;10.994;2023-03-24T05:26:23;13.80;99.90
6164;DHT22;3114;48.362;10.994;2023-03-24T05:28:51;13.70;99.90
6164;DHT22;3114;48.362;10.994;2023-03-24T05:31:18;13.70;99.90
6164;DHT22;3114;48.362;10.994;2023-03-24T05:33:45;13.70;99.90
6164;DHT22;3114;48.362;10.994;2023-03-24T05:36:13;13.90;99.90
6164;DHT22;3114;48.362;10.994;2023-03-24T05:38:43;13.20;99.90
6164;DHT22;3114;48.362;10.994;2023-03-24T05:41:10;14.00;99.90
6164;DHT22;3114;48.362;10.994;2023-03-24T05:43:37;14.20;99.90
6164;DHT22;3114;48.362;10.994;2023-03-24T05:46:04;14.30;99.90
6164;DHT22;3114;48.362;10.994;2023-03-24T05:48:31;14.40;99.90
6164;DHT22;3114;48.362;10.994;2023-03-24T05:51:00;14.40;99.90
6164;DHT22;3114;48.362;10.994;2023-03-24T05:53:27;14.50;99.90
6164;DHT22;3114;48.362;10.994;2023-03-24T05:55:55;14.60;99.90
6164;DHT22;3114;48.362;10.994;2023-03-24T05:58:23;14.50;99.90
6164;DHT22;3114;48.362;10.994;2023-03-24T06:00:50;14.60;99.90
6164;DHT22;3114;48.362;10.994;2023-03-24T06:03:19;14.70;99.90
6164;DHT22;3114;48.362;10.994;2023-03-24T06:05:46;14.70;99.90
6164;DHT22;3114;48.362;10.994;2023-03-24T06:08:13;14.80;99.90
6164;DHT22;3114;48.362;10.994;2023-03-24T06:10:41;14.70;99.90
6164;DHT22;3114;48.362;10.994;2023-03-24T06:13:09;14.60;99.90
6164;DHT22;3114;48.362;10.994;2023-03-24T06:15:37;14.60;99.90
6164;DHT22;3114;48.362;10.994;2023-03-24T06:18:07;14.70;99.90
6164;DHT22;3114;48.362;10.994;2023-03-24T06:20:35;14.70;99.90
6164;DHT22;3114;48.362;10.994;2023-03-24T06:23:02;14.80;99.90
6164;DHT22;3114;48.362;10.994;2023-03-24T06:25:29;14.80;99.90
6164;DHT22;3114;48.362;10.994;2023-03-24T06:27:56;14.90;99.90
6164;DHT22;3114;48.362;10.994;2023-03-24T06:30:31;14.80;99.90
6164;DHT22;3114;48.362;10.994;2023-03-24T06:32:58;14.90;99.90
6164;DHT22;3114;48.362;10.994;2023-03-24T06:35:25;14.80;99.90
6164;DHT22;3114;48.362;10.994;2023-03-24T06:37:52;14.60;99.90
6164;DHT22;3114;48.362;10.994;2023-03-24T06:40:20;14.60;99.90
6164;DHT22;3114;48.362;10.994;2023-03-24T06:42:48;14.40;99.90
6164;DHT22;3114;48.362;10.994;2023-03-24T06:45:15;14.40;99.90
6164;DHT22;3114;48.362;10.994;2023-03-24T06:47:43;14.30;99.90
6164;DHT22;3114;48.362;10.994;2023-03-24T06:50:10;14.30;99.90
6164;DHT22;3114;48.362;10.994;2023-03-24T06:52:37;14.40;99.90
6164;DHT22;3114;48.362;10.994;2023-03-24T06:55:06;14.20;99.90
6164;DHT22;3114;48.362;10.994;2023-03-24T06:57:33;14.20;99.90
6164;DHT22;3114;48.362;10.994;2023-03-24T07:00:00;14.20;99.90
6164;DHT22;3114;48.362;10.994;2023-03-24T07:02:33;14.30;99.90
6164;DHT22;3114;48.362;10.994;2023-03-24T07:05:07;14.20;99.90
6164;DHT22;3114;48.362;10.994;2023-03-24T07:13:45;14.30;99.90
6164;DHT22;3114;48.362;10.994;2023-03-24T07:16:21;14.40;99.90
6164;DHT22;3114;48.362;10.994;2023-03-24T07:19:08;14.30;99.90
6164;DHT22;3114;48.362;10.994;2023-03-24T07:21:47;14.20;99.90
6164;DHT22;3114;48.362;10.994;2023-03-24T07:24:15;14.20;99.90
6164;DHT22;3114;48.362;10.994;2023-03-24T07:26:42;14.10;99.90
6164;DHT22;3114;48.362;10.994;2023-03-24T07:29:11;13.80;99.90
6164;DHT22;3114;48.362;10.994;2023-03-24T07:31:38;13.70;99.90
6164;DHT22;3114;48.362;10.994;2023-03-24T07:34:09;13.60;99.90
6164;DHT22;3114;48.362;10.994;2023-03-24T07:36:36;13.50;99.90
6164;DHT22;3114;48.362;10.994;2023-03-24T07:39:06;13.50;99.90
6164;DHT22;3114;48.362;10.994;2023-03-24T07:41:34;13.40;99.90
6164;DHT22;3114;48.362;10.994;2023-03-24T07:44:00;14.00;99.90
6164;DHT22;3114;48.362;10.994;2023-03-24T07:46:27;13.40;99.90
6164;DHT22;3114;48.362;10.994;2023-03-24T07:48:54;13.40;99.90
6164;DHT22;3114;48.362;10.994;2023-03-24T07:51:21;13.40;99.90
6164;DHT22;3114;48.362;10.994;2023-03-24T07:53:48;13.50;99.90
6164;DHT22;3114;48.362;10.994;2023-03-24T07:56:19;13.60;99.90
6164;DHT22;3114;48.362;10.994;2023-03-24T07:58:46;13.60;99.90
6164;DHT22;3114;48.362;10.994;2023-03-24T08:01:13;13.80;99.90
6164;DHT22;3114;48.362;10.994;2023-03-24T08:03:40;13.70;99.90
6164;DHT22;3114;48.362;10.994;2023-03-24T08:06:08;13.80;99.90
6164;DHT22;3114;48.362;10.994;2023-03-24T08:08:36;13.80;99.90
6164;DHT22;3114;48.362;10.994;2023-03-24T08:11:03;13.70;99.90
6164;DHT22;3114;48.362;10.994;2023-03-24T08:13:31;13.70;99.90
6164;DHT22;3114;48.362;10.994;2023-03-24T08:15:58;13.60;99.90
6164;DHT22;3114;48.362;10.994;2023-03-24T08:18:25;13.50;99.90
6164;DHT22;3114;48.362;10.994;2023-03-24T08:20:55;13.60;99.90
6164;DHT22;3114;48.362;10.994;2023-03-24T08:23:23;13.70;99.90
6164;DHT22;3114;48.362;10.994;2023-03-24T08:25:50;13.70;99.90
6164;DHT22;3114;48.362;10.994;2023-03-24T08:28:17;13.80;99.90
6164;DHT22;3114;48.362;10.994;2023-03-24T08:30:45;13.80;99.90
6164;DHT22;3114;48.362;10.994;2023-03-24T08:33:14;13.80;99.90
6164;DHT22;3114;48.362;10.994;2023-03-24T08:35:41;13.80;99.90
6164;DHT22;3114;48.362;10.994;2023-03-24T08:38:10;13.80;99.90
6164;DHT22;3114;48.362;10.994;2023-03-24T08:40:39;13.70;99.90
6164;DHT22;3114;48.362;10.994;2023-03-24T08:43:08;13.80;99.90
6164;DHT22;3114;48.362;10.994;2023-03-24T08:45:37;13.70;99.90
6164;DHT22;3114;48.362;10.994;2023-03-24T08:48:07;13.70;99.90
6164;DHT22;3114;48.362;10.994;2023-03-24T08:50:40;13.60;99.90
6164;DHT22;3114;48.362;10.994;2023-03-24T08:53:09;13.60;99.90
6164;DHT22;3114;48.362;10.994;2023-03-24T08:55:37;13.60;99.90
6164;DHT22;3114;48.362;10.994;2023-03-24T08:58:06;13.50;99.90
6164;DHT22;3114;48.362;10.994;2023-03-24T09:00:36;13.50;99.90
6164;DHT22;3114;48.362;10.994;2023-03-24T09:03:04;13.50;99.90
6164;DHT22;3114;48.362;10.994;2023-03-24T09:05:32;13.50;99.90
6164;DHT22;3114;48.362;10.994;2023-03-24T09:07:58;13.50;99.90
6164;DHT22;3114;48.362;10.994;2023-03-24T09:10:26;13.50;99.90
6164;DHT22;3114;48.362;10.994;2023-03-24T09:12:52;13.50;99.90
6164;DHT22;3114;48.362;10.994;2023-03-24T09:15:20;13.50;99.90
6164;DHT22;3114;48.362;10.994;2023-03-24T09:17:47;13.50;99.90
6164;DHT22;3114;48.362;10.994;2023-03-24T09:20:18;13.40;99.90
6164;DHT22;3114;48.362;10.994;2023-03-24T09:22:47;13.40;99.90
6164;DHT22;3114;48.362;10.994;2023-03-24T09:25:16;13.40;99.90
6164;DHT22;3114;48.362;10.994;2023-03-24T09:27:44;13.30;99.90
6164;DHT22;3114;48.362;10.994;2023-03-24T09:30:15;13.30;99.90
6164;DHT22;3114;48.362;10.994;2023-03-24T09:32:43;13.30;99.90
6164;DHT22;3114;48.362;10.994;2023-03-24T09:35:10;13.60;99.90
6164;DHT22;3114;48.362;10.994;2023-03-24T09:37:38;13.30;99.90
6164;DHT22;3114;48.362;10.994;2023-03-24T09:40:14;13.10;99.90
6164;DHT22;3114;48.362;10.994;2023-03-24T09:42:52;13.10;99.90
6164;DHT22;3114;48.362;10.994;2023-03-24T09:45:26;13.00;99.90
6164;DHT22;3114;48.362;10.994;2023-03-24T09:47:58;12.80;99.90
6164;DHT22;3114;48.362;10.994;2023-03-24T09:50:29;13.50;99.90
6164;DHT22;3114;48.362;10.994;2023-03-24T09:53:05;12.70;99.90
6164;DHT22;3114;48.362;10.994;2023-03-24T09:55:34;12.50;99.90
6164;DHT22;3114;48.362;10.994;2023-03-24T09:58:05;12.30;99.90
6164;DHT22;3114;48.362;10.994;2023-03-24T10:00:33;12.60;99.90
6164;DHT22;3114;48.362;10.994;2023-03-24T10:03:13;12.60;99.90
6164;DHT22;3114;48.362;10.994;2023-03-24T10:05:42;12.60;99.90
6164;DHT22;3114;48.362;10.994;2023-03-24T10:08:16;12.50;99.90
6164;DHT22;3114;48.362;10.994;2023-03-24T10:10:52;12.50;99.90
6164;DHT22;3114;48.362;10.994;2023-03-24T10:13:33;12.60;99.90
6164;DHT22;3114;48.362;10.994;2023-03-24T10:16:06;12.60;99.90
6164;DHT22;3114;48.362;10.994;2023-03-24T10:18:40;12.70;99.90
6164;DHT22;3114;48.362;10.994;2023-03-24T10:21:18;13.90;99.90
6164;DHT22;3114;48.362;10.994;2023-03-24T10:23:57;12.90;99.90
6164;DHT22;3114;48.362;10.994;2023-03-24T10:26:36;13.60;99.90
6164;DHT22;3114;48.362;10.994;2023-03-24T10:29:20;13.30;99.90
6164;DHT22;3114;48.362;10.994;2023-03-24T10:31:58;13.60;99.90
6164;DHT22;3114;48.362;10.994;2023-03-24T10:34:41;13.80;99.90
6164;DHT22;3114;48.362;10.994;2023-03-24T10:37:10;14.00;99.90
6164;DHT22;3114;48.362;10.994;2023-03-24T10:39:38;14.00;99.90
6164;DHT22;3114;48.362;10.994;2023-03-24T10:42:20;13.90;99.90
6164;DHT22;3114;48.362;10.994;2023-03-24T10:45:05;13.90;99.90
6164;DHT22;3114;48.362;10.994;2023-03-24T10:47:33;13.80;99.90
6164;DHT22;3114;48.362;10.994;2023-03-24T10:50:05;14.80;99.90
6164;DHT22;3114;48.362;10.994;2023-03-24T10:52:37;13.90;99.90
6164;DHT22;3114;48.362;10.994;2023-03-24T10:55:13;13.90;99.90
6164;DHT22;3114;48.362;10.994;2023-03-24T10:57:42;13.80;99.90
6164;DHT22;3114;48.362;10.994;2023-03-24T11:00:27;13.90;99.90
6164;DHT22;3114;48.362;10.994;2023-03-24T11:02:57;13.80;99.90
6164;DHT22;3114;48.362;10.994;2023-03-24T11:05:27;13.90;99.90
6164;DHT22;3114;48.362;10.994;2023-03-24T11:07:59;14.00;99.90
6164;DHT22;3114;48.362;10.994;2023-03-24T11:10:38;14.20;99.90
6164;DHT22;3114;48.362;10.994;2023-03-24T11:13:16;14.20;99.90
6164;DHT22;3114;48.362;10.994;2023-03-24T11:15:53;14.10;99.90
6164;DHT22;3114;48.362;10.994;2023-03-24T11:18:21;15.10;99.90
6164;DHT22;3114;48.362;10.994;2023-03-24T11:20:52;14.30;99.90
6164;DHT22;3114;48.362;10.994;2023-03-24T11:23:26;14.50;99.90
6164;DHT22;3114;48.362;10.994;2023-03-24T11:26:07;14.40;99.90
6164;DHT22;3114;48.362;10.994;2023-03-24T11:28:37;14.90;99.90
6164;DHT22;3114;48.362;10.994;2023-03-24T11:31:07;15.70;99.90
6164;DHT22;3114;48.362;10.994;2023-03-24T11:33:41;15.90;99.90
6164;DHT22;3114;48.362;10.994;2023-03-24T11:39:39;17.50;99.90
6164;DHT22;3114;48.362;10.994;2023-03-24T11:42:37;18.60;99.90
6164;DHT22;3114;48.362;10.994;2023-03-24T11:45:19;18.00;99.90
6164;DHT22;3114;48.362;10.994;2023-03-24T11:47:48;16.70;99.90
6164;DHT22;3114;48.362;10.994;2023-03-24T11:50:18;16.00;99.90
6164;DHT22;3114;48.362;10.994;2023-03-24T11:52:51;15.70;99.90
6164;DHT22;3114;48.362;10.994;2023-03-24T11:55:24;15.70;99.90
6164;DHT22;3114;48.362;10.994;2023-03-24T11:58:00;15.60;99.90
6164;DHT22;3114;48.362;10.994;2023-03-24T12:00:32;15.70;99.90
6164;DHT22;3114;48.362;10.994;2023-03-24T12:03:31;15.50;99.90
6164;DHT22;3114;48.362;10.994;2023-03-24T12:06:14;15.60;99.90
6164;DHT22;3114;48.362;10.994;2023-03-24T12:08:49;15.40;99.90
6164;DHT22;3114;48.362;10.994;2023-03-24T12:11:24;15.20;99.90
6164;DHT22;3114;48.362;10.994;2023-03-24T12:13:57;15.20;99.90
6164;DHT22;3114;48.362;10.994;2023-03-24T12:16:38;15.20;99.90
6164;DHT22;3114;48.362;10.994;2023-03-24T12:19:39;14.10;99.90
6164;DHT22;3114;48.362;10.994;2023-03-24T12:22:22;15.30;99.90
6164;DHT22;3114;48.362;10.994;2023-03-24T12:25:17;15.10;99.90
6164;DHT22;3114;48.362;10.994;2023-03-24T12:27:51;15.10;99.90
6164;DHT22;3114;48.362;10.994;2023-03-24T12:30:30;15.00;99.90
6164;DHT22;3114;48.362;10.994;2023-03-24T12:33:09;14.90;99.90
6164;DHT22;3114;48.362;10.994;2023-03-24T12:35:52;15.10;99.90
6164;DHT22;3114;48.362;10.994;2023-03-24T12:38:37;15.80;99.90
6164;DHT22;3114;48.362;10.994;2023-03-24T12:41:23;15.30;99.90
6164;DHT22;3114;48.362;10.994;2023-03-24T12:44:15;15.20;99.90
6164;DHT22;3114;48.362;10.994;2023-03-24T12:46:50;15.00;99.90
6164;DHT22;3114;48.362;10.994;2023-03-24T12:49:40;14.90;99.90
6164;DHT22;3114;48.362;10.994;2023-03-24T12:52:24;14.70;99.90
6164;DHT22;3114;48.362;10.994;2023-03-24T12:54:59;14.70;99.90
6164;DHT22;3114;48.362;10.994;2023-03-24T12:57:34;14.70;99.90
6164;DHT22;3114;48.362;10.994;2023-03-24T13:00:05;14.60;99.90
6164;DHT22;3114;48.362;10.994;2023-03-24T13:02:41;14.50;99.90
6164;DHT22;3114;48.362;10.994;2023-03-24T13:05:16;14.40;99.90
6164;DHT22;3114;48.362;10.994;2023-03-24T13:07:45;14.30;99.90
6164;DHT22;3114;48.362;10.994;2023-03-24T13:10:21;14.20;99.90
6164;DHT22;3114;48.362;10.994;2023-03-24T13:12:53;14.20;99.90
6164;DHT22;3114;48.362;10.994;2023-03-24T13:15:24;14.30;99.90
6164;DHT22;3114;48.362;10.994;2023-03-24T13:18:05;14.20;99.90
6164;DHT22;3114;48.362;10.994;2023-03-24T13:20:40;14.20;99.90
6164;DHT22;3114;48.362;10.994;2023-03-24T13:23:22;14.30;99.90
6164;DHT22;3114;48.362;10.994;2023-03-24T13:25:58;14.20;99.90
6164;DHT22;3114;48.362;10.994;2023-03-24T13:28:33;14.40;99.90
6164;DHT22;3114;48.362;10.994;2023-03-24T13:31:03;14.80;99.90
6164;DHT22;3114;48.362;10.994;2023-03-24T13:33:34;15.10;99.90
6164;DHT22;3114;48.362;10.994;2023-03-24T13:36:24;15.10;99.90
6164;DHT22;3114;48.362;10.994;2023-03-24T13:38:59;14.70;99.90
6164;DHT22;3114;48.362;10.994;2023-03-24T13:41:34;14.70;99.90
6164;DHT22;3114;48.362;10.994;2023-03-24T13:44:05;14.60;99.90
6164;DHT22;3114;48.362;10.994;2023-03-24T13:46:35;14.60;99.90
6164;DHT22;3114;48.362;10.994;2023-03-24T13:49:08;14.60;99.90
6164;DHT22;3114;48.362;10.994;2023-03-24T13:51:42;14.50;99.90
6164;DHT22;3114;48.362;10.994;2023-03-24T13:54:17;14.40;99.90
6164;DHT22;3114;48.362;10.994;2023-03-24T13:56:51;15.50;99.90
6164;DHT22;3114;48.362;10.994;2023-03-24T13:59:30;14.30;99.90
6164;DHT22;3114;48.362;10.994;2023-03-24T14:02:21;14.30;99.90
6164;DHT22;3114;48.362;10.994;2023-03-24T14:05:02;14.00;99.90
6164;DHT22;3114;48.362;10.994;2023-03-24T14:10:40;14.00;99.90
6164;DHT22;3114;48.362;10.994;2023-03-24T14:13:32;13.80;99.90
6164;DHT22;3114;48.362;10.994;2023-03-24T14:16:34;13.80;99.90
6164;DHT22;3114;48.362;10.994;2023-03-24T14:19:17;13.70;99.90
6164;DHT22;3114;48.362;10.994;2023-03-24T14:22:03;13.70;99.90
6164;DHT22;3114;48.362;10.994;2023-03-24T14:24:35;13.70;99.90
6164;DHT22;3114;48.362;10.994;2023-03-24T14:27:21;13.80;99.90
6164;DHT22;3114;48.362;10.994;2023-03-24T14:29:50;13.90;99.90
6164;DHT22;3114;48.362;10.994;2023-03-24T14:32:36;14.00;99.90
6164;DHT22;3114;48.362;10.994;2023-03-24T14:35:16;14.40;99.90
6164;DHT22;3114;48.362;10.994;2023-03-24T14:37:49;14.90;99.90
6164;DHT22;3114;48.362;10.994;2023-03-24T14:40:24;15.10;99.90
6164;DHT22;3114;48.362;10.994;2023-03-24T14:43:17;14.60;99.90
6164;DHT22;3114;48.362;10.994;2023-03-24T14:45:53;14.40;99.90
6164;DHT22;3114;48.362;10.994;2023-03-24T14:48:40;14.10;99.90
6164;DHT22;3114;48.362;10.994;2023-03-24T14:51:32;14.00;99.90
6164;DHT22;3114;48.362;10.994;2023-03-24T14:54:04;13.90;99.90
6164;DHT22;3114;48.362;10.994;2023-03-24T14:56:35;13.80;99.90
6164;DHT22;3114;48.362;10.994;2023-03-24T14:59:08;13.90;99.90
6164;DHT22;3114;48.362;10.994;2023-03-24T15:01:37;13.60;99.90
6164;DHT22;3114;48.362;10.994;2023-03-24T15:04:07;13.50;99.90
6164;DHT22;3114;48.362;10.994;2023-03-24T15:06:43;13.50;99.90
6164;DHT22;3114;48.362;10.994;2023-03-24T15:09:11;13.40;99.90
6164;DHT22;3114;48.362;10.994;2023-03-24T15:11:39;13.40;99.90
6164;DHT22;3114;48.362;10.994;2023-03-24T15:14:15;13.40;99.90
6164;DHT22;3114;48.362;10.994;2023-03-24T15:16:51;13.30;99.90
6164;DHT22;3114;48.362;10.994;2023-03-24T15:19:22;13.30;99.90
6164;DHT22;3114;48.362;10.994;2023-03-24T15:21:58;13.40;99.90
6164;DHT22;3114;48.362;10.994;2023-03-24T15:24:33;13.40;99.90
6164;DHT22;3114;48.362;10.994;2023-03-24T15:27:22;13.20;99.90
6164;DHT22;3114;48.362;10.994;2023-03-24T15:29:56;13.20;99.90
6164;DHT22;3114;48.362;10.994;2023-03-24T15:32:25;13.30;99.90
6164;DHT22;3114;48.362;10.994;2023-03-24T15:35:02;13.20;99.90
6164;DHT22;3114;48.362;10.994;2023-03-24T15:37:33;13.00;99.90
6164;DHT22;3114;48.362;10.994;2023-03-24T15:40:02;13.00;99.90
6164;DHT22;3114;48.362;10.994;2023-03-24T15:42:30;12.90;99.90
6164;DHT22;3114;48.362;10.994;2023-03-24T15:45:08;12.90;99.90
6164;DHT22;3114;48.362;10.994;2023-03-24T15:47:38;12.80;99.90
6164;DHT22;3114;48.362;10.994;2023-03-24T15:50:30;12.70;99.90
6164;DHT22;3114;48.362;10.994;2023-03-24T15:52:59;12.70;99.90
6164;DHT22;3114;48.362;10.994;2023-03-24T15:55:27;12.70;99.90
6164;DHT22;3114;48.362;10.994;2023-03-24T15:57:58;12.50;99.90
6164;DHT22;3114;48.362;10.994;2023-03-24T16:00:28;12.00;99.90
6164;DHT22;3114;48.362;10.994;2023-03-24T16:03:00;11.90;99.90
6164;DHT22;3114;48.362;10.994;2023-03-24T16:05:31;11.90;99.90
6164;DHT22;3114;48.362;10.994;2023-03-24T16:08:00;11.90;99.90
6164;DHT22;3114;48.362;10.994;2023-03-24T16:10:33;11.90;99.90
6164;DHT22;3114;48.362;10.994;2023-03-24T16:13:16;11.90;99.90
6164;DHT22;3114;48.362;10.994;2023-03-24T16:15:53;11.90;99.90
6164;DHT22;3114;48.362;10.994;2023-03-24T16:18:23;12.00;99.90
6164;DHT22;3114;48.362;10.994;2023-03-24T16:20:52;11.70;99.90
6164;DHT22;3114;48.362;10.994;2023-03-24T16:23:19;11.70;99.90
6164;DHT22;3114;48.362;10.994;2023-03-24T16:25:46;11.80;99.90
6164;DHT22;3114;48.362;10.994;2023-03-24T16:28:16;11.70;99.90
6164;DHT22;3114;48.362;10.994;2023-03-24T16:33:48;11.90;99.90
6164;DHT22;3114;48.362;10.994;2023-03-24T16:36:19;12.00;99.90
6164;DHT22;3114;48.362;10.994;2023-03-24T16:38:53;12.00;99.90
6164;DHT22;3114;48.362;10.994;2023-03-24T16:41:20;12.00;99.90
6164;DHT22;3114;48.362;10.994;2023-03-24T16:43:48;12.00;99.90